sensor_id;sensor_type;location;lat;lon;timestamp;temperature;humidity
49855;DHT22;35752;52.164;21.244;2023-03-26T00:00:45;7.00;99.90
49855;DHT22;35752;52.164;21.244;2023-03-26T00:03:14;7.10;99.90
49855;DHT22;35752;52.164;21.244;2023-03-26T00:05:41;7.00;99.90
49855;DHT22;35752;52.164;21.244;2023-03-26T00:08:08;7.10;99.90
49855;DHT22;35752;52.164;21.244;2023-03-26T00:10:35;7.20;99.90
49855;DHT22;35752;52.164;21.244;2023-03-26T00:13:02;7.10;99.90
49855;DHT22;35752;52.164;21.244;2023-03-26T00:15:27;7.10;99.90
49855;DHT22;35752;52.164;21.244;2023-03-26T00:17:53;7.20;99.90
49855;DHT22;35752;52.164;21.244;2023-03-26T00:20:20;7.20;99.90
49855;DHT22;35752;52.164;21.244;2023-03-26T00:22:46;7.10;99.90
49855;DHT22;35752;52.164;21.244;2023-03-26T00:25:12;7.10;99.90
49855;DHT22;35752;52.164;21.244;2023-03-26T00:27:39;7.20;99.90
49855;DHT22;35752;52.164;21.244;2023-03-26T00:30:05;7.30;99.90
49855;DHT22;35752;52.164;21.244;2023-03-26T00:32:31;7.30;99.90
49855;DHT22;35752;52.164;21.244;2023-03-26T00:34:57;7.30;99.90
49855;DHT22;35752;52.164;21.244;2023-03-26T00:37:24;7.20;99.90
49855;DHT22;35752;52.164;21.244;2023-03-26T00:39:55;7.10;99.90
49855;DHT22;35752;52.164;21.244;2023-03-26T00:42:27;7.10;99.90
49855;DHT22;35752;52.164;21.244;2023-03-26T00:44:53;7.00;99.90
49855;DHT22;35752;52.164;21.244;2023-03-26T00:47:22;6.80;99.90
49855;DHT22;35752;52.164;21.244;2023-03-26T00:49:48;6.80;99.90
49855;DHT22;35752;52.164;21.244;2023-03-26T00:52:15;6.80;99.90
49855;DHT22;35752;52.164;21.244;2023-03-26T00:54:44;6.60;99.90
49855;DHT22;35752;52.164;21.244;2023-03-26T00:57:10;6.60;99.90
49855;DHT22;35752;52.164;21.244;2023-03-26T00:59:38;6.60;99.90
49855;DHT22;35752;52.164;21.244;2023-03-26T01:02:04;6.50;99.90
49855;DHT22;35752;52.164;21.244;2023-03-26T01:04:33;6.50;99.90
49855;DHT22;35752;52.164;21.244;2023-03-26T01:07:16;6.50;99.90
49855;DHT22;35752;52.164;21.244;2023-03-26T01:09:47;6.50;99.90
49855;DHT22;35752;52.164;21.244;2023-03-26T01:12:19;6.40;99.90
49855;DHT22;35752;52.164;21.244;2023-03-26T01:14:48;6.30;99.90
49855;DHT22;35752;52.164;21.244;2023-03-26T01:17:14;6.30;99.90
49855;DHT22;35752;52.164;21.244;2023-03-26T01:22:23;6.30;99.90
49855;DHT22;35752;52.164;21.244;2023-03-26T01:24:49;6.20;99.90
49855;DHT22;35752;52.164;21.244;2023-03-26T01:35:44;6.30;99.90
49855;DHT22;35752;52.164;21.244;2023-03-26T01:43:37;6.40;99.90
49855;DHT22;35752;52.164;21.244;2023-03-26T01:46:08;6.40;99.90
49855;DHT22;35752;52.164;21.244;2023-03-26T01:48:41;6.40;99.90
49855;DHT22;35752;52.164;21.244;2023-03-26T01:51:08;6.30;99.90
49855;DHT22;35752;52.164;21.244;2023-03-26T01:53:37;6.30;99.90
49855;DHT22;35752;52.164;21.244;2023-03-26T01:59:13;6.30;99.90
49855;DHT22;35752;52.164;21.244;2023-03-26T02:07:09;6.30;99.90
49855;DHT22;35752;52.164;21.244;2023-03-26T02:09:47;6.40;99.90
49855;DHT22;35752;52.164;21.244;2023-03-26T02:12:15;6.40;99.90
49855;DHT22;35752;52.164;21.244;2023-03-26T02:14:42;6.50;99.90
49855;DHT22;35752;52.164;21.244;2023-03-26T02:17:09;6.50;99.90
49855;DHT22;35752;52.164;21.244;2023-03-26T02:19:39;6.50;99.90
49855;DHT22;35752;52.164;21.244;2023-03-26T02:22:08;6.50;99.90
49855;DHT22;35752;52.164;21.244;2023-03-26T02:24:37;6.50;99.90
49855;DHT22;35752;52.164;21.244;2023-03-26T02:27:03;6.60;99.90
49855;DHT22;35752;52.164;21.244;2023-03-26T02:29:34;6.50;99.90
49855;DHT22;35752;52.164;21.244;2023-03-26T02:32:03;6.60;99.90
49855;DHT22;35752;52.164;21.244;2023-03-26T02:34:29;6.60;99.90
49855;DHT22;35752;52.164;21.244;2023-03-26T02:36:55;6.60;99.90
49855;DHT22;35752;52.164;21.244;2023-03-26T02:39:22;6.70;99.90
49855;DHT22;35752;52.164;21.244;2023-03-26T02:41:48;6.70;99.90
49855;DHT22;35752;52.164;21.244;2023-03-26T02:44:13;6.60;99.90
49855;DHT22;35752;52.164;21.244;2023-03-26T02:46:39;6.70;99.90
49855;DHT22;35752;52.164;21.244;2023-03-26T02:49:04;6.70;99.90
49855;DHT22;35752;52.164;21.244;2023-03-26T02:51:31;6.70;99.90
49855;DHT22;35752;52.164;21.244;2023-03-26T02:53:59;6.60;99.90
49855;DHT22;35752;52.164;21.244;2023-03-26T02:56:26;6.60;99.90
49855;DHT22;35752;52.164;21.244;2023-03-26T02:58:52;6.60;99.90
49855;DHT22;35752;52.164;21.244;2023-03-26T03:01:17;6.60;99.90
49855;DHT22;35752;52.164;21.244;2023-03-26T03:03:43;6.60;99.90
49855;DHT22;35752;52.164;21.244;2023-03-26T03:06:11;6.70;99.90
49855;DHT22;35752;52.164;21.244;2023-03-26T03:08:37;6.70;99.90
49855;DHT22;35752;52.164;21.244;2023-03-26T03:11:08;6.80;99.90
49855;DHT22;35752;52.164;21.244;2023-03-26T03:13:34;6.80;99.90
49855;DHT22;35752;52.164;21.244;2023-03-26T03:15:59;6.80;99.90
49855;DHT22;35752;52.164;21.244;2023-03-26T03:18:25;6.80;99.90
49855;DHT22;35752;52.164;21.244;2023-03-26T03:20:52;6.80;99.90
49855;DHT22;35752;52.164;21.244;2023-03-26T03:23:19;6.80;99.90
49855;DHT22;35752;52.164;21.244;2023-03-26T03:25:45;6.80;99.90
49855;DHT22;35752;52.164;21.244;2023-03-26T03:28:11;6.80;99.90
49855;DHT22;35752;52.164;21.244;2023-03-26T03:30:38;6.70;99.90
49855;DHT22;35752;52.164;21.244;2023-03-26T03:33:04;6.60;99.90
49855;DHT22;35752;52.164;21.244;2023-03-26T03:35:30;6.50;99.90
49855;DHT22;35752;52.164;21.244;2023-03-26T03:37:58;6.50;99.90
49855;DHT22;35752;52.164;21.244;2023-03-26T03:40:24;6.50;99.90
49855;DHT22;35752;52.164;21.244;2023-03-26T03:42:50;6.50;99.90
49855;DHT22;35752;52.164;21.244;2023-03-26T03:45:16;6.50;99.90
49855;DHT22;35752;52.164;21.244;2023-03-26T03:47:41;6.50;99.90
49855;DHT22;35752;52.164;21.244;2023-03-26T03:50:07;6.50;99.90
49855;DHT22;35752;52.164;21.244;2023-03-26T03:52:33;6.50;99.90
49855;DHT22;35752;52.164;21.244;2023-03-26T03:54:59;6.60;99.90
49855;DHT22;35752;52.164;21.244;2023-03-26T03:57:25;6.60;99.90
49855;DHT22;35752;52.164;21.244;2023-03-26T03:59:51;6.60;99.90
49855;DHT22;35752;52.164;21.244;2023-03-26T04:02:18;6.70;99.90
49855;DHT22;35752;52.164;21.244;2023-03-26T04:04:59;6.70;99.90
49855;DHT22;35752;52.164;21.244;2023-03-26T04:07:27;6.70;99.90
49855;DHT22;35752;52.164;21.244;2023-03-26T04:09:55;6.70;99.90
49855;DHT22;35752;52.164;21.244;2023-03-26T04:12:20;6.70;99.90
49855;DHT22;35752;52.164;21.244;2023-03-26T04:14:47;6.70;99.90
49855;DHT22;35752;52.164;21.244;2023-03-26T04:17:12;6.70;99.90
49855;DHT22;35752;52.164;21.244;2023-03-26T04:19:39;6.70;99.90
49855;DHT22;35752;52.164;21.244;2023-03-26T04:22:05;6.70;99.90
49855;DHT22;35752;52.164;21.244;2023-03-26T04:24:32;6.80;99.90
49855;DHT22;35752;52.164;21.244;2023-03-26T04:27:07;6.70;99.90
49855;DHT22;35752;52.164;21.244;2023-03-26T04:29:38;6.80;99.90
49855;DHT22;35752;52.164;21.244;2023-03-26T04:32:11;6.80;99.90
49855;DHT22;35752;52.164;21.244;2023-03-26T04:34:40;6.80;99.90
49855;DHT22;35752;52.164;21.244;2023-03-26T04:37:24;6.80;99.90
49855;DHT22;35752;52.164;21.244;2023-03-26T04:39:52;6.80;99.90
49855;DHT22;35752;52.164;21.244;2023-03-26T04:42:19;6.80;99.90
49855;DHT22;35752;52.164;21.244;2023-03-26T04:44:46;6.80;99.90
49855;DHT22;35752;52.164;21.244;2023-03-26T04:47:16;6.90;99.90
49855;DHT22;35752;52.164;21.244;2023-03-26T04:49:42;6.90;99.90
49855;DHT22;35752;52.164;21.244;2023-03-26T04:52:10;6.90;99.90
49855;DHT22;35752;52.164;21.244;2023-03-26T04:54:36;7.00;99.90
49855;DHT22;35752;52.164;21.244;2023-03-26T04:57:03;6.90;99.90
49855;DHT22;35752;52.164;21.244;2023-03-26T04:59:32;7.00;99.90
49855;DHT22;35752;52.164;21.244;2023-03-26T05:02:04;7.00;99.90
49855;DHT22;35752;52.164;21.244;2023-03-26T05:04:29;7.00;99.90
49855;DHT22;35752;52.164;21.244;2023-03-26T05:06:56;7.00;99.90
49855;DHT22;35752;52.164;21.244;2023-03-26T05:09:25;7.00;99.90
49855;DHT22;35752;52.164;21.244;2023-03-26T05:11:51;7.10;99.90
49855;DHT22;35752;52.164;21.244;2023-03-26T05:14:17;7.10;99.90
49855;DHT22;35752;52.164;21.244;2023-03-26T05:16:45;7.10;99.90
49855;DHT22;35752;52.164;21.244;2023-03-26T05:19:12;7.10;99.90
49855;DHT22;35752;52.164;21.244;2023-03-26T05:21:38;7.10;99.90
49855;DHT22;35752;52.164;21.244;2023-03-26T05:24:04;7.10;99.90
49855;DHT22;35752;52.164;21.244;2023-03-26T05:26:31;7.20;99.90
49855;DHT22;35752;52.164;21.244;2023-03-26T05:28:57;7.20;99.90
49855;DHT22;35752;52.164;21.244;2023-03-26T05:31:23;7.30;99.90
49855;DHT22;35752;52.164;21.244;2023-03-26T05:33:51;7.40;99.90
49855;DHT22;35752;52.164;21.244;2023-03-26T05:36:17;7.40;99.90
49855;DHT22;35752;52.164;21.244;2023-03-26T05:38:44;7.40;99.90
49855;DHT22;35752;52.164;21.244;2023-03-26T05:41:12;7.50;99.90
49855;DHT22;35752;52.164;21.244;2023-03-26T05:43:38;7.50;99.90
49855;DHT22;35752;52.164;21.244;2023-03-26T05:46:04;7.50;99.90
49855;DHT22;35752;52.164;21.244;2023-03-26T05:48:29;7.60;99.90
49855;DHT22;35752;52.164;21.244;2023-03-26T05:50:56;7.60;99.90
49855;DHT22;35752;52.164;21.244;2023-03-26T05:53:24;7.70;99.90
49855;DHT22;35752;52.164;21.244;2023-03-26T05:55:50;7.60;99.90
49855;DHT22;35752;52.164;21.244;2023-03-26T05:58:26;7.80;99.90
49855;DHT22;35752;52.164;21.244;2023-03-26T06:00:59;7.90;99.90
49855;DHT22;35752;52.164;21.244;2023-03-26T06:03:30;8.00;99.90
49855;DHT22;35752;52.164;21.244;2023-03-26T06:05:57;7.90;99.90
49855;DHT22;35752;52.164;21.244;2023-03-26T06:08:22;8.00;99.90
49855;DHT22;35752;52.164;21.244;2023-03-26T06:10:48;8.00;99.90
49855;DHT22;35752;52.164;21.244;2023-03-26T06:13:16;8.00;99.90
49855;DHT22;35752;52.164;21.244;2023-03-26T06:15:42;8.00;99.90
49855;DHT22;35752;52.164;21.244;2023-03-26T06:18:08;8.00;99.90
49855;DHT22;35752;52.164;21.244;2023-03-26T06:20:34;8.00;99.90
49855;DHT22;35752;52.164;21.244;2023-03-26T06:23:00;8.20;99.90
49855;DHT22;35752;52.164;21.244;2023-03-26T06:25:25;8.20;99.90
49855;DHT22;35752;52.164;21.244;2023-03-26T06:27:51;8.30;99.90
49855;DHT22;35752;52.164;21.244;2023-03-26T06:30:16;8.40;99.90
49855;DHT22;35752;52.164;21.244;2023-03-26T06:32:42;8.50;99.90
49855;DHT22;35752;52.164;21.244;2023-03-26T06:35:08;8.50;99.90
49855;DHT22;35752;52.164;21.244;2023-03-26T06:37:34;8.50;99.90
49855;DHT22;35752;52.164;21.244;2023-03-26T06:39:59;8.40;99.90
49855;DHT22;35752;52.164;21.244;2023-03-26T06:42:25;8.50;99.90
49855;DHT22;35752;52.164;21.244;2023-03-26T06:44:51;8.50;99.90
49855;DHT22;35752;52.164;21.244;2023-03-26T06:47:16;8.50;99.90
49855;DHT22;35752;52.164;21.244;2023-03-26T06:49:42;8.40;99.90
49855;DHT22;35752;52.164;21.244;2023-03-26T06:52:07;8.40;99.90
49855;DHT22;35752;52.164;21.244;2023-03-26T06:54:33;8.30;99.90
49855;DHT22;35752;52.164;21.244;2023-03-26T06:56:58;8.20;99.90
49855;DHT22;35752;52.164;21.244;2023-03-26T06:59:24;8.10;99.90
49855;DHT22;35752;52.164;21.244;2023-03-26T07:01:50;8.10;99.90
49855;DHT22;35752;52.164;21.244;2023-03-26T07:04:16;8.00;99.90
49855;DHT22;35752;52.164;21.244;2023-03-26T07:06:41;8.10;99.90
49855;DHT22;35752;52.164;21.244;2023-03-26T07:09:07;8.10;99.90
49855;DHT22;35752;52.164;21.244;2023-03-26T07:11:34;8.00;99.90
49855;DHT22;35752;52.164;21.244;2023-03-26T07:13:59;8.00;99.90
49855;DHT22;35752;52.164;21.244;2023-03-26T07:16:25;7.90;99.90
49855;DHT22;35752;52.164;21.244;2023-03-26T07:18:50;7.90;99.90
49855;DHT22;35752;52.164;21.244;2023-03-26T07:21:18;7.90;99.90
49855;DHT22;35752;52.164;21.244;2023-03-26T07:23:46;8.00;99.90
49855;DHT22;35752;52.164;21.244;2023-03-26T07:26:38;8.00;99.90
49855;DHT22;35752;52.164;21.244;2023-03-26T07:29:26;8.20;99.90
49855;DHT22;35752;52.164;21.244;2023-03-26T07:45:36;8.90;99.90
49855;DHT22;35752;52.164;21.244;2023-03-26T07:50:43;9.10;99.90
49855;DHT22;35752;52.164;21.244;2023-03-26T07:53:09;9.40;99.90
49855;DHT22;35752;52.164;21.244;2023-03-26T07:58:41;9.90;99.90
49855;DHT22;35752;52.164;21.244;2023-03-26T08:04:06;9.90;99.90
49855;DHT22;35752;52.164;21.244;2023-03-26T08:06:45;10.10;99.90
49855;DHT22;35752;52.164;21.244;2023-03-26T08:15:27;10.20;99.90
49855;DHT22;35752;52.164;21.244;2023-03-26T08:20:39;10.00;99.90
49855;DHT22;35752;52.164;21.244;2023-03-26T08:23:24;10.00;99.90
49855;DHT22;35752;52.164;21.244;2023-03-26T08:26:03;9.90;99.90
49855;DHT22;35752;52.164;21.244;2023-03-26T08:29:05;9.90;99.90
49855;DHT22;35752;52.164;21.244;2023-03-26T08:31:35;10.00;99.90
49855;DHT22;35752;52.164;21.244;2023-03-26T08:34:03;10.00;99.90
49855;DHT22;35752;52.164;21.244;2023-03-26T08:36:29;10.00;99.90
49855;DHT22;35752;52.164;21.244;2023-03-26T08:38:55;10.00;99.90
49855;DHT22;35752;52.164;21.244;2023-03-26T08:47:10;10.30;99.90
49855;DHT22;35752;52.164;21.244;2023-03-26T09:03:56;10.60;99.90
49855;DHT22;35752;52.164;21.244;2023-03-26T09:06:49;10.80;99.90
49855;DHT22;35752;52.164;21.244;2023-03-26T09:09:39;11.00;99.90
49855;DHT22;35752;52.164;21.244;2023-03-26T09:17:54;11.20;99.90
49855;DHT22;35752;52.164;21.244;2023-03-26T09:20:48;11.40;99.90
49855;DHT22;35752;52.164;21.244;2023-03-26T09:26:34;11.30;99.90
49855;DHT22;35752;52.164;21.244;2023-03-26T09:34:29;11.00;99.90
49855;DHT22;35752;52.164;21.244;2023-03-26T09:59:06;10.20;99.90
49855;DHT22;35752;52.164;21.244;2023-03-26T10:04:52;10.40;99.90
49855;DHT22;35752;52.164;21.244;2023-03-26T10:12:45;10.40;99.90
49855;DHT22;35752;52.164;21.244;2023-03-26T10:15:27;10.30;99.90
49855;DHT22;35752;52.164;21.244;2023-03-26T10:23:35;10.20;99.90
49855;DHT22;35752;52.164;21.244;2023-03-26T10:37:05;10.50;99.90
49855;DHT22;35752;52.164;21.244;2023-03-26T10:47:33;9.90;99.90
49855;DHT22;35752;52.164;21.244;2023-03-26T10:53:06;10.10;99.90
49855;DHT22;35752;52.164;21.244;2023-03-26T10:55:43;10.40;99.90
49855;DHT22;35752;52.164;21.244;2023-03-26T10:58:31;10.60;99.90
49855;DHT22;35752;52.164;21.244;2023-03-26T11:01:04;10.80;99.90
49855;DHT22;35752;52.164;21.244;2023-03-26T11:03:41;10.90;99.90
49855;DHT22;35752;52.164;21.244;2023-03-26T11:08:52;10.80;99.90
49855;DHT22;35752;52.164;21.244;2023-03-26T11:22:59;9.60;99.90
49855;DHT22;35752;52.164;21.244;2023-03-26T11:31:09;9.70;99.90
49855;DHT22;35752;52.164;21.244;2023-03-26T11:33:42;9.80;99.90
49855;DHT22;35752;52.164;21.244;2023-03-26T11:36:12;9.80;99.90
49855;DHT22;35752;52.164;21.244;2023-03-26T11:38:42;9.90;99.90
49855;DHT22;35752;52.164;21.244;2023-03-26T11:41:21;10.20;99.90
49855;DHT22;35752;52.164;21.244;2023-03-26T11:43:51;10.30;99.90
49855;DHT22;35752;52.164;21.244;2023-03-26T11:46:21;10.40;99.90
49855;DHT22;35752;52.164;21.244;2023-03-26T11:48:52;10.50;99.90
49855;DHT22;35752;52.164;21.244;2023-03-26T11:51:31;10.70;99.90
49855;DHT22;35752;52.164;21.244;2023-03-26T11:53:59;10.90;99.90
49855;DHT22;35752;52.164;21.244;2023-03-26T11:56:45;11.10;99.90
49855;DHT22;35752;52.164;21.244;2023-03-26T11:59:41;11.20;99.90
49855;DHT22;35752;52.164;21.244;2023-03-26T12:04:36;11.20;99.90
49855;DHT22;35752;52.164;21.244;2023-03-26T12:07:21;11.30;99.90
49855;DHT22;35752;52.164;21.244;2023-03-26T12:10:00;11.30;99.90
49855;DHT22;35752;52.164;21.244;2023-03-26T12:12:39;11.40;99.90
49855;DHT22;35752;52.164;21.244;2023-03-26T12:15:13;11.40;99.90
49855;DHT22;35752;52.164;21.244;2023-03-26T12:17:39;11.20;99.90
49855;DHT22;35752;52.164;21.244;2023-03-26T12:20:38;11.10;99.90
49855;DHT22;35752;52.164;21.244;2023-03-26T12:23:05;11.20;99.90
49855;DHT22;35752;52.164;21.244;2023-03-26T12:25:34;11.30;99.90
49855;DHT22;35752;52.164;21.244;2023-03-26T12:28:03;11.40;99.90
49855;DHT22;35752;52.164;21.244;2023-03-26T12:30:36;11.50;99.90
49855;DHT22;35752;52.164;21.244;2023-03-26T12:33:27;11.50;99.90
49855;DHT22;35752;52.164;21.244;2023-03-26T12:35:51;11.40;99.90
49855;DHT22;35752;52.164;21.244;2023-03-26T12:40:46;11.40;99.90
49855;DHT22;35752;52.164;21.244;2023-03-26T12:43:40;11.30;99.90
49855;DHT22;35752;52.164;21.244;2023-03-26T12:46:28;11.20;99.90
49855;DHT22;35752;52.164;21.244;2023-03-26T12:48:57;11.20;99.90
49855;DHT22;35752;52.164;21.244;2023-03-26T12:51:53;11.20;99.90
49855;DHT22;35752;52.164;21.244;2023-03-26T12:57:27;11.20;99.90
49855;DHT22;35752;52.164;21.244;2023-03-26T13:01:09;11.20;99.90
49855;DHT22;35752;52.164;21.244;2023-03-26T13:03:30;11.10;99.90
49855;DHT22;35752;52.164;21.244;2023-03-26T13:07:08;11.00;99.90
49855;DHT22;35752;52.164;21.244;2023-03-26T13:12:03;10.90;99.90
49855;DHT22;35752;52.164;21.244;2023-03-26T13:17:22;10.90;99.90
49855;DHT22;35752;52.164;21.244;2023-03-26T13:25:54;10.90;99.90
49855;DHT22;35752;52.164;21.244;2023-03-26T13:31:11;10.30;99.90
49855;DHT22;35752;52.164;21.244;2023-03-26T13:33:55;10.10;99.90
49855;DHT22;35752;52.164;21.244;2023-03-26T13:47:13;10.20;99.90
49855;DHT22;35752;52.164;21.244;2023-03-26T13:49:54;10.10;99.90
49855;DHT22;35752;52.164;21.244;2023-03-26T13:55:20;10.10;99.90
49855;DHT22;35752;52.164;21.244;2023-03-26T14:00:27;10.40;99.90
49855;DHT22;35752;52.164;21.244;2023-03-26T14:02:57;10.40;99.90
49855;DHT22;35752;52.164;21.244;2023-03-26T14:05:30;10.50;99.90
49855;DHT22;35752;52.164;21.244;2023-03-26T14:08:04;10.50;99.90
49855;DHT22;35752;52.164;21.244;2023-03-26T14:10:42;10.60;99.90
49855;DHT22;35752;52.164;21.244;2023-03-26T14:13:30;10.60;99.90
49855;DHT22;35752;52.164;21.244;2023-03-26T14:16:02;10.60;99.90
49855;DHT22;35752;52.164;21.244;2023-03-26T14:18:44;10.50;99.90
49855;DHT22;35752;52.164;21.244;2023-03-26T14:21:35;10.20;99.90
49855;DHT22;35752;52.164;21.244;2023-03-26T14:24:29;10.10;99.90
49855;DHT22;35752;52.164;21.244;2023-03-26T14:33:15;10.40;99.90
49855;DHT22;35752;52.164;21.244;2023-03-26T14:41:50;10.70;99.90
49855;DHT22;35752;52.164;21.244;2023-03-26T14:47:20;10.80;99.90
49855;DHT22;35752;52.164;21.244;2023-03-26T15:34:43;10.70;99.90
49855;DHT22;35752;52.164;21.244;2023-03-26T15:43:10;10.60;99.90
49855;DHT22;35752;52.164;21.244;2023-03-26T15:50:52;10.50;99.90
49855;DHT22;35752;52.164;21.244;2023-03-26T15:56:23;10.50;99.90
49855;DHT22;35752;52.164;21.244;2023-03-26T15:59:06;10.40;99.90
49855;DHT22;35752;52.164;21.244;2023-03-26T16:15:37;10.30;99.90
49855;DHT22;35752;52.164;21.244;2023-03-26T16:20:54;10.30;99.90
49855;DHT22;35752;52.164;21.244;2023-03-26T16:23:50;10.20;99.90
49855;DHT22;35752;52.164;21.244;2023-03-26T16:26:25;10.20;99.90
49855;DHT22;35752;52.164;21.244;2023-03-26T16:36:37;10.00;99.90
49855;DHT22;35752;52.164;21.244;2023-03-26T16:47:13;9.90;99.90
49855;DHT22;35752;52.164;21.244;2023-03-26T16:52:20;9.80;99.90
49855;DHT22;35752;52.164;21.244;2023-03-26T16:55:19;9.80;99.90
49855;DHT22;35752;52.164;21.244;2023-03-26T16:57:52;9.70;99.90
49855;DHT22;35752;52.164;21.244;2023-03-26T17:00:33;9.70;99.90
49855;DHT22;35752;52.164;21.244;2023-03-26T17:03:16;9.50;99.90
49855;DHT22;35752;52.164;21.244;2023-03-26T17:08:43;9.30;99.90
49855;DHT22;35752;52.164;21.244;2023-03-26T17:14:06;9.10;99.90
49855;DHT22;35752;52.164;21.244;2023-03-26T17:22:27;8.80;99.90
49855;DHT22;35752;52.164;21.244;2023-03-26T17:30:54;8.50;99.90
49855;DHT22;35752;52.164;21.244;2023-03-26T17:41:06;8.20;99.90
49855;DHT22;35752;52.164;21.244;2023-03-26T17:43:43;8.20;99.90
49855;DHT22;35752;52.164;21.244;2023-03-26T17:48:37;8.00;99.90
49855;DHT22;35752;52.164;21.244;2023-03-26T17:53:56;7.70;99.90
49855;DHT22;35752;52.164;21.244;2023-03-26T17:56:27;7.60;99.90
49855;DHT22;35752;52.164;21.244;2023-03-26T17:58:55;7.50;99.90
49855;DHT22;35752;52.164;21.244;2023-03-26T18:01:34;7.40;99.90
49855;DHT22;35752;52.164;21.244;2023-03-26T18:04:04;7.40;99.90
49855;DHT22;35752;52.164;21.244;2023-03-26T18:17:45;7.10;99.90
49855;DHT22;35752;52.164;21.244;2023-03-26T18:20:20;7.00;99.90
49855;DHT22;35752;52.164;21.244;2023-03-26T18:22:48;7.10;99.90
49855;DHT22;35752;52.164;21.244;2023-03-26T18:25:29;7.10;99.90
49855;DHT22;35752;52.164;21.244;2023-03-26T18:27:59;7.10;99.90
49855;DHT22;35752;52.164;21.244;2023-03-26T18:30:27;7.10;99.90
49855;DHT22;35752;52.164;21.244;2023-03-26T18:33:02;7.10;99.90
49855;DHT22;35752;52.164;21.244;2023-03-26T18:35:49;7.00;99.90
49855;DHT22;35752;52.164;21.244;2023-03-26T18:38:19;7.00;99.90
49855;DHT22;35752;52.164;21.244;2023-03-26T18:40:47;6.90;99.90
49855;DHT22;35752;52.164;21.244;2023-03-26T18:43:16;6.90;99.90
49855;DHT22;35752;52.164;21.244;2023-03-26T18:45:43;6.90;99.90
49855;DHT22;35752;52.164;21.244;2023-03-26T18:48:19;6.80;99.90
49855;DHT22;35752;52.164;21.244;2023-03-26T18:50:53;6.80;99.90
49855;DHT22;35752;52.164;21.244;2023-03-26T18:53:22;6.50;99.90
49855;DHT22;35752;52.164;21.244;2023-03-26T18:55:50;6.60;99.90
49855;DHT22;35752;52.164;21.244;2023-03-26T18:58:38;6.50;99.90
49855;DHT22;35752;52.164;21.244;2023-03-26T19:01:07;6.50;99.90
49855;DHT22;35752;52.164;21.244;2023-03-26T19:03:37;6.30;99.90
49855;DHT22;35752;52.164;21.244;2023-03-26T19:06:06;6.20;99.90
49855;DHT22;35752;52.164;21.244;2023-03-26T19:08:36;6.20;99.90
49855;DHT22;35752;52.164;21.244;2023-03-26T19:11:06;6.20;99.90
49855;DHT22;35752;52.164;21.244;2023-03-26T19:13:35;6.00;99.90
49855;DHT22;35752;52.164;21.244;2023-03-26T19:16:06;6.10;99.90
49855;DHT22;35752;52.164;21.244;2023-03-26T19:18:36;6.00;99.90
49855;DHT22;35752;52.164;21.244;2023-03-26T19:21:04;6.10;99.90
49855;DHT22;35752;52.164;21.244;2023-03-26T19:23:35;6.00;99.90
49855;DHT22;35752;52.164;21.244;2023-03-26T19:26:04;6.00;99.90
49855;DHT22;35752;52.164;21.244;2023-03-26T19:28:45;5.80;99.90
49855;DHT22;35752;52.164;21.244;2023-03-26T19:33:42;5.50;99.90
49855;DHT22;35752;52.164;21.244;2023-03-26T19:36:17;5.20;99.90
49855;DHT22;35752;52.164;21.244;2023-03-26T19:38:49;5.20;99.90
49855;DHT22;35752;52.164;21.244;2023-03-26T19:43:53;5.20;99.90
49855;DHT22;35752;52.164;21.244;2023-03-26T19:46:22;5.30;99.90
49855;DHT22;35752;52.164;21.244;2023-03-26T19:48:50;5.40;99.90
49855;DHT22;35752;52.164;21.244;2023-03-26T19:51:31;5.30;99.90
49855;DHT22;35752;52.164;21.244;2023-03-26T19:54:00;5.20;99.90
49855;DHT22;35752;52.164;21.244;2023-03-26T19:56:27;5.00;99.90
49855;DHT22;35752;52.164;21.244;2023-03-26T19:58:53;5.10;99.90
49855;DHT22;35752;52.164;21.244;2023-03-26T20:01:20;5.10;99.90
49855;DHT22;35752;52.164;21.244;2023-03-26T20:03:49;5.30;99.90
49855;DHT22;35752;52.164;21.244;2023-03-26T20:06:18;5.20;99.90
49855;DHT22;35752;52.164;21.244;2023-03-26T20:08:44;5.20;99.90
49855;DHT22;35752;52.164;21.244;2023-03-26T20:11:24;5.20;99.90
49855;DHT22;35752;52.164;21.244;2023-03-26T20:13:54;5.20;99.90
49855;DHT22;35752;52.164;21.244;2023-03-26T20:16:26;5.10;99.90
49855;DHT22;35752;52.164;21.244;2023-03-26T20:18:53;5.00;99.90
49855;DHT22;35752;52.164;21.244;2023-03-26T20:21:22;5.00;99.90
49855;DHT22;35752;52.164;21.244;2023-03-26T20:23:49;4.70;99.90
49855;DHT22;35752;52.164;21.244;2023-03-26T20:26:18;4.70;99.90
49855;DHT22;35752;52.164;21.244;2023-03-26T20:28:44;4.50;99.90
49855;DHT22;35752;52.164;21.244;2023-03-26T20:31:24;4.50;99.90
49855;DHT22;35752;52.164;21.244;2023-03-26T20:33:52;4.50;99.90
49855;DHT22;35752;52.164;21.244;2023-03-26T20:36:18;4.50;99.90
49855;DHT22;35752;52.164;21.244;2023-03-26T20:38:45;4.50;99.90
49855;DHT22;35752;52.164;21.244;2023-03-26T20:41:22;4.40;99.90
49855;DHT22;35752;52.164;21.244;2023-03-26T20:43:51;4.30;99.90
49855;DHT22;35752;52.164;21.244;2023-03-26T20:46:19;4.20;99.90
49855;DHT22;35752;52.164;21.244;2023-03-26T20:48:45;4.10;99.90
49855;DHT22;35752;52.164;21.244;2023-03-26T20:51:12;4.10;99.90
49855;DHT22;35752;52.164;21.244;2023-03-26T20:53:40;4.10;99.90
49855;DHT22;35752;52.164;21.244;2023-03-26T20:56:14;4.20;99.90
49855;DHT22;35752;52.164;21.244;2023-03-26T20:58:42;4.20;99.90
49855;DHT22;35752;52.164;21.244;2023-03-26T21:01:09;4.20;99.90
49855;DHT22;35752;52.164;21.244;2023-03-26T21:03:36;4.20;99.90
49855;DHT22;35752;52.164;21.244;2023-03-26T21:06:04;4.20;99.90
49855;DHT22;35752;52.164;21.244;2023-03-26T21:08:30;4.10;99.90
49855;DHT22;35752;52.164;21.244;2023-03-26T21:11:00;4.20;99.90
49855;DHT22;35752;52.164;21.244;2023-03-26T21:13:39;4.10;99.90
49855;DHT22;35752;52.164;21.244;2023-03-26T21:16:09;4.10;99.90
49855;DHT22;35752;52.164;21.244;2023-03-26T21:18:37;4.10;99.90
49855;DHT22;35752;52.164;21.244;2023-03-26T21:21:29;4.10;99.90
49855;DHT22;35752;52.164;21.244;2023-03-26T21:26:43;3.90;99.90
49855;DHT22;35752;52.164;21.244;2023-03-26T21:29:12;3.70;99.90
49855;DHT22;35752;52.164;21.244;2023-03-26T21:31:38;3.70;99.90
49855;DHT22;35752;52.164;21.244;2023-03-26T21:34:04;3.70;99.90
49855;DHT22;35752;52.164;21.244;2023-03-26T21:36:30;3.70;99.90
49855;DHT22;35752;52.164;21.244;2023-03-26T21:38:56;3.60;99.90
49855;DHT22;35752;52.164;21.244;2023-03-26T21:43:48;3.30;99.90
49855;DHT22;35752;52.164;21.244;2023-03-26T21:46:14;3.50;99.90
49855;DHT22;35752;52.164;21.244;2023-03-26T21:48:40;3.60;99.90
49855;DHT22;35752;52.164;21.244;2023-03-26T21:51:08;3.70;99.90
49855;DHT22;35752;52.164;21.244;2023-03-26T21:53:34;3.80;99.90
49855;DHT22;35752;52.164;21.244;2023-03-26T21:59:01;3.80;99.90
49855;DHT22;35752;52.164;21.244;2023-03-26T22:04:13;3.60;99.90